Weather reports worldwide

Advertisment
Berlin/Tempelhof, Germany (10384): temperature & dewpoint: 18.11.2020 05:00:00 - 24.11.2020 05:00:00 (CET)Berlin/Tempelhof, Germany (10384): temperature 5cm & temperature -5cm: 18.11.2020 05:00:00 - 24.11.2020 05:00:00 (CET)Berlin/Tempelhof, Germany (10384): temperature -20cm & temperature -100cm: 18.11.2020 05:00:00 - 24.11.2020 05:00:00 (CET)Berlin/Tempelhof, Germany (10384): wind speed & gusts: 18.11.2020 05:00:00 - 24.11.2020 05:00:00 (CET)Berlin/Tempelhof, Germany (10384): wind direction: 18.11.2020 05:00:00 - 24.11.2020 05:00:00 (CET)Berlin/Tempelhof, Germany (10384): reduced air pressure: 18.11.2020 05:00:00 - 24.11.2020 05:00:00 (CET)Berlin/Tempelhof, Germany (10384): sunshine duration: 18.11.2020 05:00:00 - 24.11.2020 05:00:00 (CET)Berlin/Tempelhof, Germany (10384): precipitation: 18.11.2020 05:00:00 - 24.11.2020 05:00:00 (CET)
Date & Time tt [°C] td [°C] tt 5cm [°C] tt -5cm [°C] tt -20cm [°C] tt -100cm [°C] ff [km/h] ff [kn] fx [km/h] fx [kn] dd ppp [hPa] sd [min] rr [mm]
24.11.2020 05:00:00 1,1 -0,4 -1,1 2,7 6,3 10,0 7 4 15 8 S 1026,9 0 0,0
24.11.2020 04:00:00 1,3 -0,3 -0,7 2,9 6,4 10,0 8 4 13 7 S 1027,3 0 0,0
24.11.2020 03:00:00 2,4 0,5 0,5 3,0 6,6 10,0 9 5 18 10 SSW 1027,9 0 0,0
24.11.2020 02:00:00 2,7 0,7 0,7 3,3 6,7 10,0 12 6 18 10 SW 1028,3 0 0,0
24.11.2020 01:00:00 3,1 1,2 0,8 3,6 6,8 10,0 8 5 13 7 SW 1028,8 0 0,0
24.11.2020 00:00:00 4,2 2,0 0,8 4,1 7,0 10,0 7 4 14 8 SW 1029,0 0 0,0
23.11.2020 23:00:00 5,1 2,3 2,2 4,6 7,1 10,1 9 5 19 11 WSW 1028,9 0 0,0
23.11.2020 22:00:00 5,9 2,6 3,8 5,1 7,1 10,1 11 6 22 12 W 1028,8 0 0,0
23.11.2020 21:00:00 6,8 2,9 5,1 5,7 7,1 10,1 16 9 27 15 W 1028,5 0 0,0
23.11.2020 20:00:00 7,3 3,2 6,7 5,7 7,2 10,1 14 7 23 13 WSW 1027,8 0 0,0
23.11.2020 19:00:00 7,1 3,2 6,2 5,7 7,2 10,1 11 6 19 10 WSW 1027,7 0 0,0
23.11.2020 18:00:00 7,3 3,2 6,1 5,7 7,3 10,1 14 8 23 12 W 1027,2 0 0,0
23.11.2020 17:00:00 7,1 3,2 4,9 5,9 7,3 10,1 11 6 22 12 W 1026,8 0 0,0
23.11.2020 16:00:00 8,0 3,2 6,3 6,7 7,2 10,1 14 7 29 16 W 1026,1 19 0,0
23.11.2020 15:00:00 8,5 3,3 7,5 7,4 7,1 10,1 23 13 38 20 W 1025,9 25 0,0
23.11.2020 14:00:00 8,7 3,2 8,4 7,7 7,0 10,1 23 12 39 21 W 1025,1 51 0,0
23.11.2020 13:00:00 8,5 3,2 8,9 7,3 6,9 10,1 21 11 35 19 W 1024,9 49 0,0
23.11.2020 12:00:00 7,6 3,2 8,0 7,2 6,8 10,1 25 13 35 19 W 1024,7 58 0,0
23.11.2020 11:00:00 7,2 3,1 7,3 6,1 6,7 10,1 23 13 34 18 W 1024,5 32 0,0
23.11.2020 10:00:00 6,6 3,2 6,8 4,9 6,7 10,1 21 11 33 18 W 1024,2 59 0,0
23.11.2020 09:00:00 5,8 3,1 4,6 4,6 6,8 10,1 18 10 31 17 W 1023,8 8 0,0
23.11.2020 08:00:00 5,4 3,0 4,0 4,4 6,8 10,1 16 9 31 17 W 1023,1 0 0,0
23.11.2020 07:00:00 5,5 3,4 3,9 4,4 6,9 10,1 11 6 24 13 WSW 1022,6 0 0,0
23.11.2020 06:00:00 5,7 3,7 3,8 4,5 7,0 10,1 14 7 21 12 W 1022,5 0 0,0
23.11.2020 05:00:00 5,8 4,0 3,9 4,6 7,1 10,2 13 7 19 10 WSW 1022,5 0 0,0
23.11.2020 04:00:00 5,8 3,9 3,4 4,8 7,2 10,2 11 6 18 10 WSW 1022,3 0 0,0
23.11.2020 03:00:00 6,4 4,1 4,4 5,2 7,3 10,2 11 6 21 12 WSW 1022,5 0 0,0
23.11.2020 02:00:00 6,6 4,2 4,6 5,4 7,4 10,2 12 7 19 11 WSW 1022,7 0 0,0
23.11.2020 01:00:00 6,5 4,6 4,4 5,4 7,5 10,2 9 5 17 9 WSW 1022,9 0 0,0
23.11.2020 00:00:00 6,8 4,8 4,3 5,7 7,5 10,2 9 5 16 8 WSW 1023,0 0 0,0
22.11.2020 23:00:00 7,4 5,1 5,2 6,2 7,6 10,2 11 6 19 10 WSW 1023,1 0 0,0
22.11.2020 22:00:00 8,3 5,4 6,9 6,7 7,6 10,2 13 7 22 12 WSW 1023,1 0 0,0
22.11.2020 21:00:00 8,6 5,8 7,3 7,0 7,6 10,2 13 7 22 12 WSW 1022,9 0 0,0
22.11.2020 20:00:00 8,8 5,9 7,5 7,2 7,6 10,2 13 7 21 12 WSW 1022,7 0 0,0
22.11.2020 19:00:00 8,9 5,9 7,9 7,2 7,6 10,2 14 7 22 12 WSW 1022,7 0 0,0
22.11.2020 18:00:00 9,3 6,2 8,0 7,5 7,6 10,3 11 6 19 10 WSW 1022,7 0 0,1
22.11.2020 17:00:00 9,4 6,1 8,2 7,7 7,5 10,3 14 8 29 15 WSW 1022,3 0 0,0
22.11.2020 16:00:00 9,9 5,5 9,1 7,8 7,4 10,3 18 10 33 18 W 1022,1 0 0,0
22.11.2020 15:00:00 10,3 5,7 9,5 8,2 7,3 10,3 18 10 37 20 W 1021,6 17 0,0
22.11.2020 14:00:00 10,6 6,0 10,9 8,2 7,2 10,3 19 11 37 20 W 1021,5 15 0,0
22.11.2020 13:00:00 9,8 5,8 10,0 7,8 7,0 10,3 23 12 47 25 W 1021,5 6 0,0
22.11.2020 12:00:00 9,2 5,7 9,2 7,2 6,9 10,3 20 11 35 19 W 1021,6 0 0,0
22.11.2020 11:00:00 8,5 4,5 8,0 6,8 6,8 10,3 15 8 31 17 WSW 1022,0 0 0,0
22.11.2020 10:00:00 8,0 3,5 7,9 6,4 6,8 10,3 16 9 32 17 SW 1022,0 0 0,0
22.11.2020 09:00:00 7,4 2,7 7,2 6,0 6,7 10,4 19 10 33 18 SW 1021,8 0 0,0
22.11.2020 08:00:00 7,2 2,3 6,6 5,8 6,7 10,4 17 9 31 17 SW 1022,2 0 0,0
22.11.2020 07:00:00 7,0 2,0 6,5 5,7 6,7 10,4 19 10 31 17 SW 1022,5 0 0,0
22.11.2020 06:00:00 6,8 1,8 6,2 5,6 6,7 10,4 16 8 29 15 SW 1022,9 0 0,0
22.11.2020 05:00:00 6,7 1,2 6,2 5,5 6,6 10,4 18 10 39 21 SW 1023,2 0 0,0
22.11.2020 04:00:00 6,6 1,0 6,0 5,4 6,6 10,4 19 11 34 18 SW 1023,4 0 0,0
22.11.2020 03:00:00 6,7 1,0 6,1 5,4 6,6 10,4 16 9 31 17 SW 1023,9 0 0,0
22.11.2020 02:00:00 6,7 0,9 6,2 5,4 6,5 10,5 18 10 35 19 SW 1024,2 0 0,0
22.11.2020 01:00:00 6,7 0,8 6,2 5,3 6,5 10,5 21 11 39 21 SW 1024,3 0 0,0
22.11.2020 00:00:00 6,7 0,6 6,1 5,2 6,5 10,5 21 11 35 19 SW 1024,8 0 0,0
21.11.2020 23:00:00 6,7 0,0 6,1 5,1 6,5 10,5 21 12 37 20 SW 1025,1 0 0,0
21.11.2020 22:00:00 6,5 -0,7 5,9 5,1 6,5 10,5 19 10 37 20 SW 1025,3 0 0,0
21.11.2020 21:00:00 6,5 -1,2 5,9 5,0 6,4 10,5 19 11 42 23 SW 1025,8 0 0,0
21.11.2020 20:00:00 6,6 -1,3 5,9 5,0 6,4 10,5 22 12 41 22 SW 1026,0 0 0,0
21.11.2020 19:00:00 6,5 -1,0 5,4 5,0 6,4 10,6 21 12 40 22 SW 1026,3 0 0,0
21.11.2020 18:00:00 6,5 -0,9 5,9 5,0 6,4 10,6 18 10 40 22 SW 1027,1 0 0,0
21.11.2020 17:00:00 6,4 -1,1 5,8 5,0 6,3 10,6 24 13 41 22 SW 1027,6 0 0,0
21.11.2020 16:00:00 5,8 -0,5 5,3 5,2 6,2 10,6 22 12 39 21 SSW 1027,8 0 0,0
21.11.2020 15:00:00 6,0 -1,1 5,7 5,4 6,1 10,6 21 12 44 24 SW 1028,4 0 0,0
21.11.2020 14:00:00 5,7 -0,5 5,6 5,4 6,0 10,6 20 11 40 22 SSW 1029,2 0 0,0
21.11.2020 13:00:00 5,1 -0,7 5,2 5,2 5,9 10,6 22 12 39 21 SW 1030,2 0 0,0
21.11.2020 12:00:00 4,8 -1,2 4,7 4,9 5,7 10,6 22 12 35 19 SSW 1030,7 10 0,0
21.11.2020 11:00:00 4,1 -0,3 3,7 3,9 5,7 10,7 15 8 28 15 SSW 1031,9 35 0,0
21.11.2020 10:00:00 2,3 0,0 2,0 2,2 5,8 10,7 13 7 20 11 S 1032,4 26 0,0
21.11.2020 09:00:00 0,5 -0,7 -0,3 2,1 5,8 10,7 8 4 22 12 SSW 1033,4 0 0,0
21.11.2020 08:00:00 0,6 -0,7 -0,4 2,1 5,9 10,7 13 7 22 12 SSW 1033,4 0 0,0
21.11.2020 07:00:00 1,0 -0,6 -0,4 2,1 6,0 10,7 11 6 18 10 SSW 1033,3 0 0,0
21.11.2020 06:00:00 1,1 -0,3 -0,1 2,1 6,0 10,7 9 5 16 8 SSW 1033,6 0 0,0
21.11.2020 05:00:00 0,7 -0,5 -1,1 2,1 6,1 10,7 8 4 16 9 SW 1033,8 0 0,0
21.11.2020 04:00:00 0,3 -0,8 -1,4 2,1 6,2 10,7 10 5 16 8 SW 1034,6 0 0,0
21.11.2020 03:00:00 0,5 -0,6 -1,8 2,2 6,3 10,7 7 4 19 10 SW 1034,7 0 0,0
21.11.2020 02:00:00 0,7 -0,5 -0,9 2,3 6,5 10,8 11 6 16 9 SSW 1034,8 0 0,0
21.11.2020 01:00:00 0,6 -0,6 -1,5 2,4 6,6 10,8 10 5 13 7 WSW 1035,3 0 0,0
21.11.2020 00:00:00 0,8 -0,5 -1,0 2,6 6,7 10,8 10 6 15 8 SW 1034,8 0 0,0
20.11.2020 23:00:00 1,2 -0,2 -2,6 2,8 6,8 10,8 6 3 12 7 SW 1034,7 0 0,0
20.11.2020 22:00:00 1,8 0,1 -2,5 3,0 6,9 10,8 7 4 15 8 WSW 1034,5 0 0,0
20.11.2020 21:00:00 2,2 0,3 -0,4 3,1 7,1 10,8 10 5 18 10 WSW 1033,8 0 0,0
20.11.2020 20:00:00 2,7 0,2 -0,3 3,4 7,2 10,8 10 6 19 10 WSW 1033,7 0 0,0
20.11.2020 19:00:00 3,4 0,4 1,1 3,8 7,4 10,8 13 7 23 12 W 1033,9 0 0,0
20.11.2020 18:00:00 4,0 0,5 1,3 4,1 7,5 10,8 10 5 18 10 W 1033,5 0 0,0
20.11.2020 17:00:00 4,0 0,3 0,2 4,9 7,5 10,8 8 4 22 12 WNW 1032,6 0 0,0
20.11.2020 16:00:00 5,1 0,7 2,9 6,0 7,5 10,8 16 9 23 12 WNW 1031,6 19 0,0
20.11.2020 15:00:00 5,8 0,9 4,9 7,0 7,4 10,8 17 9 29 15 WNW 1031,1 28 0,0
20.11.2020 14:00:00 5,8 1,5 6,3 6,8 7,3 10,9 16 9 27 15 WNW 1031,0 27 0,0
20.11.2020 13:00:00 5,6 1,6 6,5 6,1 7,2 10,8 20 11 31 17 WNW 1031,1 15 0,0
20.11.2020 12:00:00 4,7 1,4 4,9 5,7 7,1 10,9 16 9 27 14 WNW 1031,0 14 0,0
20.11.2020 11:00:00 4,4 1,5 4,5 4,9 7,1 10,9 16 9 24 13 WNW 1030,6 26 0,0
20.11.2020 10:00:00 3,7 1,0 3,0 3,8 7,2 10,9 13 7 27 15 WNW 1029,7 25 0,0
20.11.2020 09:00:00 3,1 0,7 1,7 3,4 7,3 10,9 16 8 31 17 W 1029,0 28 0,0
20.11.2020 08:00:00 2,6 0,4 1,2 3,3 7,4 10,9 17 9 29 15 W 1028,1 0 0,0
20.11.2020 07:00:00 2,7 0,3 1,1 3,4 7,6 10,9 19 10 30 16 W 1027,4 0 0,0
20.11.2020 06:00:00 2,6 0,1 0,2 3,6 7,7 10,9 14 8 25 14 WNW 1026,9 0 0,0
20.11.2020 05:00:00 3,1 0,1 1,4 3,8 7,9 10,9 18 10 30 16 W 1026,6 0 0,0
20.11.2020 04:00:00 3,3 0,2 1,9 4,1 8,0 10,9 19 10 32 17 W 1026,2 0 0,0
20.11.2020 03:00:00 3,6 0,4 1,9 4,3 8,2 10,9 17 9 30 16 W 1026,3 0 0,0
20.11.2020 02:00:00 3,9 0,6 2,4 4,5 8,3 10,9 20 11 32 18 W 1025,9 0 0,0
20.11.2020 01:00:00 4,0 0,5 2,2 4,8 8,5 10,9 18 10 32 17 W 1025,3 0 0,0
20.11.2020 00:00:00 4,5 0,8 3,0 5,1 8,7 10,9 17 9 32 17 W 1024,5 0 0,0
19.11.2020 23:00:00 5,1 1,1 3,6 5,5 8,9 10,9 18 10 29 16 W 1023,7 0 0,0
19.11.2020 22:00:00 5,6 1,8 4,0 5,9 9,0 10,9 17 9 31 17 W 1022,8 0 0,0
19.11.2020 21:00:00 6,1 2,6 4,4 6,4 9,2 10,9 19 10 33 18 WNW 1021,8 0 0,0
19.11.2020 20:00:00 6,8 2,6 4,7 7,0 9,3 10,9 22 12 37 20 WNW 1020,7 0 0,0
19.11.2020 19:00:00 7,3 3,1 5,1 7,7 9,4 10,9 22 12 54 29 WNW 1019,3 0 0,0
19.11.2020 18:00:00 8,0 4,6 6,7 8,5 9,4 10,9 26 14 48 26 WNW 1018,0 0 1,0
19.11.2020 17:00:00 10,0 4,4 9,2 8,8 9,4 10,9 23 12 40 22 W 1016,0 0 0,0
19.11.2020 16:00:00 10,8 3,2 10,0 9,1 9,4 10,9 23 12 44 24 WSW 1015,2 0 0,0
19.11.2020 15:00:00 10,9 3,1 10,4 9,3 9,4 10,9 23 12 38 21 WSW 1014,7 0 0,0
19.11.2020 14:00:00 10,7 3,5 10,2 9,4 9,3 10,9 21 11 49 27 WSW 1014,8 9 0,0
19.11.2020 13:00:00 10,9 3,3 10,3 9,7 9,2 10,9 28 15 46 25 WSW 1014,2 21 0,0
19.11.2020 12:00:00 10,8 4,9 10,5 9,2 9,2 10,9 22 12 46 25 W 1014,3 0 0,0
19.11.2020 11:00:00 11,0 7,4 9,9 9,2 9,1 10,9 22 12 41 22 W 1014,2 0 0,0
19.11.2020 10:00:00 12,1 7,2 11,7 8,8 9,0 10,9 18 10 31 17 WSW 1013,8 0 0,0
19.11.2020 09:00:00 11,5 6,2 10,8 8,4 9,0 10,9 17 9 32 17 SW 1013,4 0 0,0
19.11.2020 08:00:00 11,2 5,7 10,4 8,2 9,0 10,9 16 9 31 17 SSW 1013,0 0 0,0
19.11.2020 07:00:00 10,7 5,1 10,1 7,9 9,0 10,9 16 9 28 15 SSW 1012,9 0 0,0
19.11.2020 06:00:00 10,2 4,7 9,5 7,5 9,0 10,9 16 8 27 15 SSW 1013,0 0 0,0
19.11.2020 05:00:00 9,6 4,4 8,5 7,1 9,1 10,9 13 7 26 14 SSW 1013,6 0 0,0
19.11.2020 04:00:00 9,4 4,1 7,2 7,0 9,1 10,9 12 6 25 14 SSW 1014,2 0 0,0
19.11.2020 03:00:00 9,4 4,1 7,6 7,0 9,2 10,9 13 7 26 14 SSW 1014,7 0 0,0
19.11.2020 02:00:00 9,5 4,2 7,2 7,0 9,4 10,9 13 7 26 14 SSW 1015,2 0 0,0
19.11.2020 01:00:00 9,8 4,4 7,3 7,3 9,5 10,9 13 7 32 17 SSW 1016,0 0 0,0
19.11.2020 00:00:00 9,7 4,8 7,7 7,4 9,6 10,9 14 8 25 13 SSW 1016,7 0 0,0
18.11.2020 23:00:00 8,9 5,4 6,6 7,6 9,7 10,9 10 5 24 13 S 1017,4 0 0,0
18.11.2020 22:00:00 8,9 6,1 7,1 7,9 9,9 10,9 15 8 23 13 S 1018,2 0 0,0
18.11.2020 21:00:00 8,4 6,8 6,1 8,2 10,0 10,9 8 5 17 9 S 1019,2 0 0,0
18.11.2020 20:00:00 9,2 7,2 7,0 8,7 10,1 10,9 11 6 16 9 S 1020,1 0 0,0
18.11.2020 19:00:00 10,4 7,5 8,0 9,4 10,1 10,9 11 6 19 11 S 1020,8 0 0,0
18.11.2020 18:00:00 11,7 7,7 10,8 10,1 10,2 10,9 8 5 23 12 S 1021,7 0 0,0
18.11.2020 17:00:00 11,8 7,6 11,1 10,3 10,2 10,9 12 7 23 12 SSW 1022,4 0 0,0
18.11.2020 16:00:00 12,0 7,2 11,3 10,6 10,1 10,9 14 7 25 14 SSW 1023,0 0 0,0
18.11.2020 15:00:00 12,1 6,7 11,7 10,9 10,1 10,9 18 10 29 16 SW 1023,5 0 0,0
18.11.2020 14:00:00 12,3 6,5 12,4 11,2 10,0 10,9 14 7 29 16 SSW 1024,2 0 0,0
18.11.2020 13:00:00 12,4 6,4 12,6 11,2 9,9 10,9 13 7 29 16 SSW 1024,7 0 0,0
18.11.2020 12:00:00 12,2 6,3 12,2 11,2 9,8 10,9 16 9 28 15 SW 1025,5 0 0,0
18.11.2020 11:00:00 12,2 7,7 12,7 10,6 9,7 10,9 13 7 21 11 SW 1026,0 0 0,0
18.11.2020 10:00:00 11,6 8,1 11,4 9,9 9,7 10,9 11 6 18 10 SSW 1026,2 0 0,0
18.11.2020 09:00:00 11,3 8,0 10,5 9,5 9,6 10,9 11 6 20 11 SSW 1026,4 0 0,0
18.11.2020 08:00:00 11,3 8,1 10,1 9,4 9,6 10,9 10 6 18 10 SW 1026,3 0 0,0
18.11.2020 07:00:00 11,2 8,2 10,1 9,4 9,6 10,9 13 7 22 12 WSW 1026,1 0 0,0
18.11.2020 06:00:00 11,0 8,5 10,0 9,4 9,6 10,9 10 5 16 9 SW 1025,6 0 0,0
18.11.2020 05:00:00 11,0 8,7 9,9 9,4 9,6 10,9 10 5 19 10 SW 1025,8 0 0,0

tt = temperature
td = dewpoint
tt 5cm = temperature 5cm
tt -5cm = temperature -5cm
tt -20cm = temperature -20cm
tt -100cm = temperature -100cm
ff = wind speed
fx = gusts
dd = wind direction
ppp = reduced air pressure
sd = sunshine duration
rr = precipitation

Next stations